sensor_id;sensor_type;location;lat;lon;timestamp;P1;durP1;ratioP1;P2;durP2;ratioP2
23670;SDS011;12012;51.998;7.614;2024-01-30T00:01:21;16.75;;;11.15;;
23670;SDS011;12012;51.998;7.614;2024-01-30T00:03:47;19.48;;;11.90;;
23670;SDS011;12012;51.998;7.614;2024-01-30T00:06:12;18.98;;;12.35;;
23670;SDS011;12012;51.998;7.614;2024-01-30T00:08:38;20.88;;;11.90;;
23670;SDS011;12012;51.998;7.614;2024-01-30T00:11:03;16.25;;;10.70;;
23670;SDS011;12012;51.998;7.614;2024-01-30T00:13:29;16.02;;;10.98;;
23670;SDS011;12012;51.998;7.614;2024-01-30T00:15:55;22.00;;;13.60;;
23670;SDS011;12012;51.998;7.614;2024-01-30T00:18:20;17.90;;;11.70;;
23670;SDS011;12012;51.998;7.614;2024-01-30T00:20:46;15.93;;;10.52;;
23670;SDS011;12012;51.998;7.614;2024-01-30T00:23:12;15.45;;;10.57;;
23670;SDS011;12012;51.998;7.614;2024-01-30T00:25:38;18.27;;;11.63;;
23670;SDS011;12012;51.998;7.614;2024-01-30T00:28:03;16.17;;;11.63;;
23670;SDS011;12012;51.998;7.614;2024-01-30T00:30:29;17.98;;;11.77;;
23670;SDS011;12012;51.998;7.614;2024-01-30T00:32:54;22.77;;;13.82;;
23670;SDS011;12012;51.998;7.614;2024-01-30T00:35:20;19.70;;;12.52;;
23670;SDS011;12012;51.998;7.614;2024-01-30T00:37:47;19.15;;;11.75;;
23670;SDS011;12012;51.998;7.614;2024-01-30T00:40:13;19.83;;;11.05;;
23670;SDS011;12012;51.998;7.614;2024-01-30T00:42:41;19.20;;;12.70;;
23670;SDS011;12012;51.998;7.614;2024-01-30T00:45:11;14.77;;;10.63;;
23670;SDS011;12012;51.998;7.614;2024-01-30T00:47:38;16.40;;;10.43;;
23670;SDS011;12012;51.998;7.614;2024-01-30T00:50:03;13.27;;;10.23;;
23670;SDS011;12012;51.998;7.614;2024-01-30T00:52:30;15.27;;;10.25;;
23670;SDS011;12012;51.998;7.614;2024-01-30T00:54:55;17.23;;;11.55;;
23670;SDS011;12012;51.998;7.614;2024-01-30T00:57:21;17.50;;;11.68;;
23670;SDS011;12012;51.998;7.614;2024-01-30T00:59:46;17.85;;;11.93;;
23670;SDS011;12012;51.998;7.614;2024-01-30T01:02:12;19.33;;;12.45;;
23670;SDS011;12012;51.998;7.614;2024-01-30T01:04:38;23.98;;;15.93;;
23670;SDS011;12012;51.998;7.614;2024-01-30T01:07:04;17.33;;;11.55;;
23670;SDS011;12012;51.998;7.614;2024-01-30T01:09:29;17.38;;;12.02;;
23670;SDS011;12012;51.998;7.614;2024-01-30T01:11:55;18.92;;;11.80;;
23670;SDS011;12012;51.998;7.614;2024-01-30T01:14:20;19.85;;;10.85;;
23670;SDS011;12012;51.998;7.614;2024-01-30T01:16:46;16.40;;;10.15;;
23670;SDS011;12012;51.998;7.614;2024-01-30T01:19:11;16.60;;;10.70;;
23670;SDS011;12012;51.998;7.614;2024-01-30T01:21:37;14.70;;;10.73;;
23670;SDS011;12012;51.998;7.614;2024-01-30T01:24:03;19.52;;;12.73;;
23670;SDS011;12012;51.998;7.614;2024-01-30T01:26:28;15.98;;;11.02;;
23670;SDS011;12012;51.998;7.614;2024-01-30T01:28:54;17.42;;;12.65;;
23670;SDS011;12012;51.998;7.614;2024-01-30T01:31:19;17.42;;;12.30;;
23670;SDS011;12012;51.998;7.614;2024-01-30T01:33:49;20.10;;;11.27;;
23670;SDS011;12012;51.998;7.614;2024-01-30T01:36:15;16.48;;;10.77;;
23670;SDS011;12012;51.998;7.614;2024-01-30T01:38:40;15.07;;;9.68;;
23670;SDS011;12012;51.998;7.614;2024-01-30T01:41:06;15.57;;;9.77;;
23670;SDS011;12012;51.998;7.614;2024-01-30T01:43:31;12.80;;;8.68;;
23670;SDS011;12012;51.998;7.614;2024-01-30T01:45:57;17.25;;;11.90;;
23670;SDS011;12012;51.998;7.614;2024-01-30T01:48:23;22.90;;;15.07;;
23670;SDS011;12012;51.998;7.614;2024-01-30T01:50:48;21.50;;;13.25;;
23670;SDS011;12012;51.998;7.614;2024-01-30T01:53:14;17.63;;;11.95;;
23670;SDS011;12012;51.998;7.614;2024-01-30T01:55:40;15.15;;;10.07;;
23670;SDS011;12012;51.998;7.614;2024-01-30T01:58:06;18.02;;;11.95;;
23670;SDS011;12012;51.998;7.614;2024-01-30T02:00:34;14.88;;;10.35;;
23670;SDS011;12012;51.998;7.614;2024-01-30T02:03:00;16.05;;;10.73;;
23670;SDS011;12012;51.998;7.614;2024-01-30T02:05:28;19.00;;;11.45;;
23670;SDS011;12012;51.998;7.614;2024-01-30T02:07:54;21.35;;;12.43;;
23670;SDS011;12012;51.998;7.614;2024-01-30T02:10:21;26.88;;;15.32;;
23670;SDS011;12012;51.998;7.614;2024-01-30T02:12:48;15.38;;;11.45;;
23670;SDS011;12012;51.998;7.614;2024-01-30T02:15:13;24.00;;;15.10;;
23670;SDS011;12012;51.998;7.614;2024-01-30T02:17:39;16.27;;;11.07;;
23670;SDS011;12012;51.998;7.614;2024-01-30T02:20:05;15.32;;;10.80;;
23670;SDS011;12012;51.998;7.614;2024-01-30T02:22:31;20.45;;;13.07;;
23670;SDS011;12012;51.998;7.614;2024-01-30T02:24:59;16.33;;;11.45;;
23670;SDS011;12012;51.998;7.614;2024-01-30T02:27:24;21.70;;;13.93;;
23670;SDS011;12012;51.998;7.614;2024-01-30T02:29:50;18.98;;;12.05;;
23670;SDS011;12012;51.998;7.614;2024-01-30T02:32:15;21.77;;;15.02;;
23670;SDS011;12012;51.998;7.614;2024-01-30T02:34:41;17.58;;;11.95;;
23670;SDS011;12012;51.998;7.614;2024-01-30T02:37:07;18.77;;;12.80;;
23670;SDS011;12012;51.998;7.614;2024-01-30T02:39:32;14.98;;;11.02;;
23670;SDS011;12012;51.998;7.614;2024-01-30T02:41:58;14.80;;;10.65;;
23670;SDS011;12012;51.998;7.614;2024-01-30T02:44:23;18.10;;;11.20;;
23670;SDS011;12012;51.998;7.614;2024-01-30T02:46:49;18.42;;;11.15;;
23670;SDS011;12012;51.998;7.614;2024-01-30T02:49:14;16.58;;;10.20;;
23670;SDS011;12012;51.998;7.614;2024-01-30T02:51:40;20.30;;;12.70;;
23670;SDS011;12012;51.998;7.614;2024-01-30T02:54:05;22.17;;;13.05;;
23670;SDS011;12012;51.998;7.614;2024-01-30T02:56:31;16.02;;;10.40;;
23670;SDS011;12012;51.998;7.614;2024-01-30T02:58:56;14.35;;;10.00;;
23670;SDS011;12012;51.998;7.614;2024-01-30T03:01:22;19.10;;;11.88;;
23670;SDS011;12012;51.998;7.614;2024-01-30T03:03:49;14.27;;;9.48;;
23670;SDS011;12012;51.998;7.614;2024-01-30T03:06:15;12.52;;;9.15;;
23670;SDS011;12012;51.998;7.614;2024-01-30T03:08:42;16.85;;;10.23;;
23670;SDS011;12012;51.998;7.614;2024-01-30T03:11:08;14.75;;;9.98;;
23670;SDS011;12012;51.998;7.614;2024-01-30T03:13:33;16.13;;;9.70;;
23670;SDS011;12012;51.998;7.614;2024-01-30T03:15:59;13.90;;;9.73;;
23670;SDS011;12012;51.998;7.614;2024-01-30T03:18:24;13.60;;;9.40;;
23670;SDS011;12012;51.998;7.614;2024-01-30T03:20:50;14.32;;;10.45;;
23670;SDS011;12012;51.998;7.614;2024-01-30T03:23:15;15.88;;;9.43;;
23670;SDS011;12012;51.998;7.614;2024-01-30T03:25:41;17.15;;;10.85;;
23670;SDS011;12012;51.998;7.614;2024-01-30T03:28:06;12.13;;;8.10;;
23670;SDS011;12012;51.998;7.614;2024-01-30T03:30:33;13.02;;;10.05;;
23670;SDS011;12012;51.998;7.614;2024-01-30T03:32:59;15.55;;;8.55;;
23670;SDS011;12012;51.998;7.614;2024-01-30T03:35:25;11.02;;;7.80;;
23670;SDS011;12012;51.998;7.614;2024-01-30T03:37:50;12.95;;;9.02;;
23670;SDS011;12012;51.998;7.614;2024-01-30T03:40:16;12.05;;;7.97;;
23670;SDS011;12012;51.998;7.614;2024-01-30T03:42:41;11.55;;;8.57;;
23670;SDS011;12012;51.998;7.614;2024-01-30T03:45:07;16.40;;;10.80;;
23670;SDS011;12012;51.998;7.614;2024-01-30T03:47:33;14.90;;;9.07;;
23670;SDS011;12012;51.998;7.614;2024-01-30T03:49:58;12.10;;;8.57;;
23670;SDS011;12012;51.998;7.614;2024-01-30T03:52:24;13.13;;;8.77;;
23670;SDS011;12012;51.998;7.614;2024-01-30T03:54:49;13.73;;;8.35;;
23670;SDS011;12012;51.998;7.614;2024-01-30T03:57:15;13.10;;;9.00;;
23670;SDS011;12012;51.998;7.614;2024-01-30T03:59:44;19.83;;;12.85;;
23670;SDS011;12012;51.998;7.614;2024-01-30T04:02:10;14.52;;;9.48;;
23670;SDS011;12012;51.998;7.614;2024-01-30T04:04:36;16.30;;;10.77;;
23670;SDS011;12012;51.998;7.614;2024-01-30T04:07:02;13.77;;;9.45;;
23670;SDS011;12012;51.998;7.614;2024-01-30T04:09:27;17.58;;;10.63;;
23670;SDS011;12012;51.998;7.614;2024-01-30T04:11:53;24.10;;;14.13;;
23670;SDS011;12012;51.998;7.614;2024-01-30T04:14:19;19.25;;;11.50;;
23670;SDS011;12012;51.998;7.614;2024-01-30T04:16:44;17.23;;;10.95;;
23670;SDS011;12012;51.998;7.614;2024-01-30T04:19:10;21.00;;;13.60;;
23670;SDS011;12012;51.998;7.614;2024-01-30T04:21:35;20.73;;;12.18;;
23670;SDS011;12012;51.998;7.614;2024-01-30T04:24:01;19.13;;;11.48;;
23670;SDS011;12012;51.998;7.614;2024-01-30T04:26:27;20.10;;;12.02;;
23670;SDS011;12012;51.998;7.614;2024-01-30T04:28:52;15.15;;;9.85;;
23670;SDS011;12012;51.998;7.614;2024-01-30T04:31:18;18.73;;;12.15;;
23670;SDS011;12012;51.998;7.614;2024-01-30T04:33:43;25.00;;;14.95;;
23670;SDS011;12012;51.998;7.614;2024-01-30T04:36:09;21.02;;;11.48;;
23670;SDS011;12012;51.998;7.614;2024-01-30T04:38:40;25.63;;;15.60;;
23670;SDS011;12012;51.998;7.614;2024-01-30T04:41:06;20.42;;;12.20;;
23670;SDS011;12012;51.998;7.614;2024-01-30T04:43:32;16.75;;;11.43;;
23670;SDS011;12012;51.998;7.614;2024-01-30T04:45:58;18.35;;;12.65;;
23670;SDS011;12012;51.998;7.614;2024-01-30T04:48:23;27.05;;;14.13;;
23670;SDS011;12012;51.998;7.614;2024-01-30T04:50:49;20.85;;;12.43;;
23670;SDS011;12012;51.998;7.614;2024-01-30T04:53:14;20.17;;;12.20;;
23670;SDS011;12012;51.998;7.614;2024-01-30T04:55:40;15.23;;;9.77;;
23670;SDS011;12012;51.998;7.614;2024-01-30T04:58:05;19.77;;;13.10;;
23670;SDS011;12012;51.998;7.614;2024-01-30T05:00:31;17.23;;;11.60;;
23670;SDS011;12012;51.998;7.614;2024-01-30T05:02:57;17.23;;;11.27;;
23670;SDS011;12012;51.998;7.614;2024-01-30T05:05:22;16.08;;;10.88;;
23670;SDS011;12012;51.998;7.614;2024-01-30T05:07:48;19.85;;;12.18;;
23670;SDS011;12012;51.998;7.614;2024-01-30T05:10:14;19.77;;;12.25;;
23670;SDS011;12012;51.998;7.614;2024-01-30T05:12:39;20.85;;;12.43;;
23670;SDS011;12012;51.998;7.614;2024-01-30T05:15:05;18.75;;;11.20;;
23670;SDS011;12012;51.998;7.614;2024-01-30T05:17:31;17.85;;;10.85;;
23670;SDS011;12012;51.998;7.614;2024-01-30T05:19:57;18.23;;;11.40;;
23670;SDS011;12012;51.998;7.614;2024-01-30T05:22:22;20.40;;;11.65;;
23670;SDS011;12012;51.998;7.614;2024-01-30T05:24:48;15.43;;;10.43;;
23670;SDS011;12012;51.998;7.614;2024-01-30T05:27:14;16.80;;;10.73;;
23670;SDS011;12012;51.998;7.614;2024-01-30T05:29:39;17.08;;;11.20;;
23670;SDS011;12012;51.998;7.614;2024-01-30T05:32:06;16.08;;;10.65;;
23670;SDS011;12012;51.998;7.614;2024-01-30T05:34:31;19.23;;;12.23;;
23670;SDS011;12012;51.998;7.614;2024-01-30T05:36:57;22.95;;;13.32;;
23670;SDS011;12012;51.998;7.614;2024-01-30T05:39:23;24.05;;;14.50;;
23670;SDS011;12012;51.998;7.614;2024-01-30T05:41:48;17.98;;;12.63;;
23670;SDS011;12012;51.998;7.614;2024-01-30T05:44:14;18.20;;;11.80;;
23670;SDS011;12012;51.998;7.614;2024-01-30T05:46:40;19.98;;;12.98;;
23670;SDS011;12012;51.998;7.614;2024-01-30T05:49:05;16.92;;;12.02;;
23670;SDS011;12012;51.998;7.614;2024-01-30T05:51:31;23.80;;;14.75;;
23670;SDS011;12012;51.998;7.614;2024-01-30T05:53:56;16.25;;;10.57;;
23670;SDS011;12012;51.998;7.614;2024-01-30T05:56:22;16.70;;;10.88;;
23670;SDS011;12012;51.998;7.614;2024-01-30T05:58:48;18.70;;;11.10;;
23670;SDS011;12012;51.998;7.614;2024-01-30T06:01:15;24.38;;;13.55;;
23670;SDS011;12012;51.998;7.614;2024-01-30T06:03:41;19.73;;;13.50;;
23670;SDS011;12012;51.998;7.614;2024-01-30T06:06:08;15.57;;;11.25;;
23670;SDS011;12012;51.998;7.614;2024-01-30T06:08:34;22.67;;;14.43;;
23670;SDS011;12012;51.998;7.614;2024-01-30T06:10:59;14.27;;;9.80;;
23670;SDS011;12012;51.998;7.614;2024-01-30T06:13:25;17.52;;;10.82;;
23670;SDS011;12012;51.998;7.614;2024-01-30T06:15:51;15.93;;;9.88;;
23670;SDS011;12012;51.998;7.614;2024-01-30T06:18:17;17.00;;;10.98;;
23670;SDS011;12012;51.998;7.614;2024-01-30T06:20:42;15.30;;;10.73;;
23670;SDS011;12012;51.998;7.614;2024-01-30T06:23:08;14.43;;;9.85;;
23670;SDS011;12012;51.998;7.614;2024-01-30T06:25:34;16.27;;;11.65;;
23670;SDS011;12012;51.998;7.614;2024-01-30T06:27:59;12.45;;;8.13;;
23670;SDS011;12012;51.998;7.614;2024-01-30T06:30:25;12.10;;;8.75;;
23670;SDS011;12012;51.998;7.614;2024-01-30T06:32:50;16.05;;;10.75;;
23670;SDS011;12012;51.998;7.614;2024-01-30T06:35:16;17.75;;;11.70;;
23670;SDS011;12012;51.998;7.614;2024-01-30T06:37:42;14.40;;;9.43;;
23670;SDS011;12012;51.998;7.614;2024-01-30T06:40:08;14.85;;;10.77;;
23670;SDS011;12012;51.998;7.614;2024-01-30T06:42:34;14.55;;;10.07;;
23670;SDS011;12012;51.998;7.614;2024-01-30T06:44:59;11.88;;;8.43;;
23670;SDS011;12012;51.998;7.614;2024-01-30T06:47:25;17.30;;;10.02;;
23670;SDS011;12012;51.998;7.614;2024-01-30T06:49:50;14.07;;;9.60;;
23670;SDS011;12012;51.998;7.614;2024-01-30T06:52:16;11.20;;;8.48;;
23670;SDS011;12012;51.998;7.614;2024-01-30T06:54:42;14.27;;;9.02;;
23670;SDS011;12012;51.998;7.614;2024-01-30T06:57:07;14.57;;;9.15;;
23670;SDS011;12012;51.998;7.614;2024-01-30T06:59:36;14.50;;;9.43;;
23670;SDS011;12012;51.998;7.614;2024-01-30T07:02:02;11.60;;;7.90;;
23670;SDS011;12012;51.998;7.614;2024-01-30T07:04:28;15.98;;;10.25;;
23670;SDS011;12012;51.998;7.614;2024-01-30T07:06:53;17.13;;;10.27;;
23670;SDS011;12012;51.998;7.614;2024-01-30T07:09:19;17.48;;;10.85;;
23670;SDS011;12012;51.998;7.614;2024-01-30T07:11:44;13.43;;;9.98;;
23670;SDS011;12012;51.998;7.614;2024-01-30T07:14:10;17.58;;;11.45;;
23670;SDS011;12012;51.998;7.614;2024-01-30T07:16:35;12.70;;;8.93;;
23670;SDS011;12012;51.998;7.614;2024-01-30T07:19:01;13.75;;;9.15;;
23670;SDS011;12012;51.998;7.614;2024-01-30T07:21:27;14.48;;;9.00;;
23670;SDS011;12012;51.998;7.614;2024-01-30T07:23:56;13.80;;;9.50;;
23670;SDS011;12012;51.998;7.614;2024-01-30T07:26:22;14.10;;;8.88;;
23670;SDS011;12012;51.998;7.614;2024-01-30T07:28:47;19.45;;;10.43;;
23670;SDS011;12012;51.998;7.614;2024-01-30T07:31:13;13.65;;;9.65;;
23670;SDS011;12012;51.998;7.614;2024-01-30T07:33:38;14.35;;;9.23;;
23670;SDS011;12012;51.998;7.614;2024-01-30T07:36:04;15.07;;;8.85;;
23670;SDS011;12012;51.998;7.614;2024-01-30T07:38:33;15.38;;;9.07;;
23670;SDS011;12012;51.998;7.614;2024-01-30T07:40:59;10.88;;;7.88;;
23670;SDS011;12012;51.998;7.614;2024-01-30T07:43:24;13.15;;;8.18;;
23670;SDS011;12012;51.998;7.614;2024-01-30T07:45:50;14.07;;;9.93;;
23670;SDS011;12012;51.998;7.614;2024-01-30T07:48:16;11.00;;;7.75;;
23670;SDS011;12012;51.998;7.614;2024-01-30T07:50:41;11.77;;;8.25;;
23670;SDS011;12012;51.998;7.614;2024-01-30T07:53:07;17.13;;;10.57;;
23670;SDS011;12012;51.998;7.614;2024-01-30T07:55:32;12.88;;;8.32;;
23670;SDS011;12012;51.998;7.614;2024-01-30T08:01:26;13.25;;;8.75;;
23670;SDS011;12012;51.998;7.614;2024-01-30T08:03:52;21.80;;;12.45;;
23670;SDS011;12012;51.998;7.614;2024-01-30T08:06:18;16.80;;;10.20;;
23670;SDS011;12012;51.998;7.614;2024-01-30T08:08:44;20.15;;;11.95;;
23670;SDS011;12012;51.998;7.614;2024-01-30T08:11:10;16.25;;;11.27;;
23670;SDS011;12012;51.998;7.614;2024-01-30T08:13:35;20.85;;;12.60;;
23670;SDS011;12012;51.998;7.614;2024-01-30T08:16:01;18.58;;;11.25;;
23670;SDS011;12012;51.998;7.614;2024-01-30T08:18:26;16.13;;;9.85;;
23670;SDS011;12012;51.998;7.614;2024-01-30T08:20:52;16.33;;;10.93;;
23670;SDS011;12012;51.998;7.614;2024-01-30T08:23:17;13.85;;;9.07;;
23670;SDS011;12012;51.998;7.614;2024-01-30T08:25:43;14.50;;;9.27;;
23670;SDS011;12012;51.998;7.614;2024-01-30T08:28:08;14.13;;;9.13;;
23670;SDS011;12012;51.998;7.614;2024-01-30T08:30:34;19.58;;;10.20;;
23670;SDS011;12012;51.998;7.614;2024-01-30T08:33:00;16.48;;;10.60;;
23670;SDS011;12012;51.998;7.614;2024-01-30T08:35:26;14.38;;;9.85;;
23670;SDS011;12012;51.998;7.614;2024-01-30T08:37:51;14.20;;;9.15;;
23670;SDS011;12012;51.998;7.614;2024-01-30T08:40:17;14.68;;;10.80;;
23670;SDS011;12012;51.998;7.614;2024-01-30T08:42:42;20.10;;;11.73;;
23670;SDS011;12012;51.998;7.614;2024-01-30T08:45:08;17.92;;;11.20;;
23670;SDS011;12012;51.998;7.614;2024-01-30T08:47:34;20.08;;;11.13;;
23670;SDS011;12012;51.998;7.614;2024-01-30T08:50:00;13.73;;;9.75;;
23670;SDS011;12012;51.998;7.614;2024-01-30T08:52:25;16.67;;;12.30;;
23670;SDS011;12012;51.998;7.614;2024-01-30T08:54:51;16.25;;;10.25;;
23670;SDS011;12012;51.998;7.614;2024-01-30T08:57:17;19.52;;;11.98;;
23670;SDS011;12012;51.998;7.614;2024-01-30T08:59:42;16.05;;;9.48;;
23670;SDS011;12012;51.998;7.614;2024-01-30T09:02:10;15.05;;;10.75;;
23670;SDS011;12012;51.998;7.614;2024-01-30T09:04:38;15.63;;;9.75;;
23670;SDS011;12012;51.998;7.614;2024-01-30T09:07:03;18.80;;;11.10;;
23670;SDS011;12012;51.998;7.614;2024-01-30T09:09:33;16.27;;;10.95;;
23670;SDS011;12012;51.998;7.614;2024-01-30T09:11:59;16.95;;;11.05;;
23670;SDS011;12012;51.998;7.614;2024-01-30T09:14:29;14.45;;;10.32;;
23670;SDS011;12012;51.998;7.614;2024-01-30T09:16:55;20.45;;;12.10;;
23670;SDS011;12012;51.998;7.614;2024-01-30T09:19:21;15.80;;;10.50;;
23670;SDS011;12012;51.998;7.614;2024-01-30T09:21:46;16.35;;;11.38;;
23670;SDS011;12012;51.998;7.614;2024-01-30T09:24:12;19.13;;;11.30;;
23670;SDS011;12012;51.998;7.614;2024-01-30T09:26:37;15.65;;;10.52;;
23670;SDS011;12012;51.998;7.614;2024-01-30T09:29:03;18.08;;;9.73;;
23670;SDS011;12012;51.998;7.614;2024-01-30T09:31:29;19.95;;;11.15;;
23670;SDS011;12012;51.998;7.614;2024-01-30T09:33:54;22.17;;;11.85;;
23670;SDS011;12012;51.998;7.614;2024-01-30T09:36:20;17.73;;;10.75;;
23670;SDS011;12012;51.998;7.614;2024-01-30T09:38:45;15.95;;;10.35;;
23670;SDS011;12012;51.998;7.614;2024-01-30T09:41:11;19.80;;;10.23;;
23670;SDS011;12012;51.998;7.614;2024-01-30T09:43:38;17.50;;;10.23;;
23670;SDS011;12012;51.998;7.614;2024-01-30T09:46:07;15.15;;;9.43;;
23670;SDS011;12012;51.998;7.614;2024-01-30T09:48:38;16.80;;;9.90;;
23670;SDS011;12012;51.998;7.614;2024-01-30T09:51:06;19.38;;;10.95;;
23670;SDS011;12012;51.998;7.614;2024-01-30T09:53:32;12.75;;;8.38;;
23670;SDS011;12012;51.998;7.614;2024-01-30T09:55:58;15.85;;;10.45;;
23670;SDS011;12012;51.998;7.614;2024-01-30T09:58:24;13.00;;;8.40;;
23670;SDS011;12012;51.998;7.614;2024-01-30T10:00:49;16.35;;;9.80;;
23670;SDS011;12012;51.998;7.614;2024-01-30T10:03:15;16.40;;;10.25;;
23670;SDS011;12012;51.998;7.614;2024-01-30T10:05:40;12.93;;;9.07;;
23670;SDS011;12012;51.998;7.614;2024-01-30T10:08:10;15.18;;;10.45;;
23670;SDS011;12012;51.998;7.614;2024-01-30T10:10:36;13.73;;;9.98;;
23670;SDS011;12012;51.998;7.614;2024-01-30T10:13:01;19.88;;;10.32;;
23670;SDS011;12012;51.998;7.614;2024-01-30T10:15:28;12.43;;;9.18;;
23670;SDS011;12012;51.998;7.614;2024-01-30T10:17:54;14.38;;;9.20;;
23670;SDS011;12012;51.998;7.614;2024-01-30T10:20:19;21.83;;;11.38;;
23670;SDS011;12012;51.998;7.614;2024-01-30T10:22:47;17.70;;;9.82;;
23670;SDS011;12012;51.998;7.614;2024-01-30T10:25:13;17.15;;;11.05;;
23670;SDS011;12012;51.998;7.614;2024-01-30T10:27:41;16.60;;;9.90;;
23670;SDS011;12012;51.998;7.614;2024-01-30T10:30:07;16.52;;;9.77;;
23670;SDS011;12012;51.998;7.614;2024-01-30T10:32:33;14.38;;;9.50;;
23670;SDS011;12012;51.998;7.614;2024-01-30T10:34:58;14.35;;;9.27;;
23670;SDS011;12012;51.998;7.614;2024-01-30T10:37:25;13.52;;;9.57;;
23670;SDS011;12012;51.998;7.614;2024-01-30T10:39:51;13.55;;;9.02;;
23670;SDS011;12012;51.998;7.614;2024-01-30T10:42:20;17.08;;;10.90;;
23670;SDS011;12012;51.998;7.614;2024-01-30T10:45:07;18.20;;;9.52;;
23670;SDS011;12012;51.998;7.614;2024-01-30T10:47:49;17.35;;;10.18;;
23670;SDS011;12012;51.998;7.614;2024-01-30T10:50:15;15.35;;;9.63;;
23670;SDS011;12012;51.998;7.614;2024-01-30T10:52:41;15.13;;;8.85;;
23670;SDS011;12012;51.998;7.614;2024-01-30T10:55:08;15.65;;;10.07;;
23670;SDS011;12012;51.998;7.614;2024-01-30T10:57:35;17.80;;;9.50;;
23670;SDS011;12012;51.998;7.614;2024-01-30T11:00:02;14.25;;;9.75;;
23670;SDS011;12012;51.998;7.614;2024-01-30T11:02:30;13.55;;;9.27;;
23670;SDS011;12012;51.998;7.614;2024-01-30T11:04:58;13.23;;;8.48;;
23670;SDS011;12012;51.998;7.614;2024-01-30T11:07:28;13.77;;;8.82;;
23670;SDS011;12012;51.998;7.614;2024-01-30T11:12:23;12.68;;;8.93;;
23670;SDS011;12012;51.998;7.614;2024-01-30T11:14:50;14.38;;;8.82;;
23670;SDS011;12012;51.998;7.614;2024-01-30T11:22:56;12.38;;;8.30;;
23670;SDS011;12012;51.998;7.614;2024-01-30T11:25:22;12.50;;;7.78;;
23670;SDS011;12012;51.998;7.614;2024-01-30T11:27:52;13.60;;;7.85;;
23670;SDS011;12012;51.998;7.614;2024-01-30T11:30:25;10.93;;;7.68;;
23670;SDS011;12012;51.998;7.614;2024-01-30T11:33:08;14.98;;;7.40;;
23670;SDS011;12012;51.998;7.614;2024-01-30T11:35:37;10.70;;;7.78;;
23670;SDS011;12012;51.998;7.614;2024-01-30T11:38:05;19.38;;;8.05;;
23670;SDS011;12012;51.998;7.614;2024-01-30T11:40:32;11.52;;;7.60;;
23670;SDS011;12012;51.998;7.614;2024-01-30T11:42:58;11.90;;;7.75;;
23670;SDS011;12012;51.998;7.614;2024-01-30T11:45:28;15.38;;;8.50;;
23670;SDS011;12012;51.998;7.614;2024-01-30T11:47:54;12.00;;;8.10;;
23670;SDS011;12012;51.998;7.614;2024-01-30T11:50:20;16.42;;;9.07;;
23670;SDS011;12012;51.998;7.614;2024-01-30T11:52:47;14.82;;;8.10;;
23670;SDS011;12012;51.998;7.614;2024-01-30T11:55:13;11.60;;;7.90;;
23670;SDS011;12012;51.998;7.614;2024-01-30T11:57:39;16.27;;;8.70;;
23670;SDS011;12012;51.998;7.614;2024-01-30T12:00:05;14.40;;;8.68;;
23670;SDS011;12012;51.998;7.614;2024-01-30T12:02:41;16.35;;;8.02;;
23670;SDS011;12012;51.998;7.614;2024-01-30T12:05:08;14.55;;;8.10;;
23670;SDS011;12012;51.998;7.614;2024-01-30T12:07:36;13.85;;;7.93;;
23670;SDS011;12012;51.998;7.614;2024-01-30T12:10:02;15.60;;;8.38;;
23670;SDS011;12012;51.998;7.614;2024-01-30T12:12:28;16.63;;;8.65;;
23670;SDS011;12012;51.998;7.614;2024-01-30T12:14:55;16.77;;;8.25;;
23670;SDS011;12012;51.998;7.614;2024-01-30T12:17:39;16.27;;;7.85;;
23670;SDS011;12012;51.998;7.614;2024-01-30T12:20:12;13.77;;;8.15;;
23670;SDS011;12012;51.998;7.614;2024-01-30T12:22:42;16.40;;;8.13;;
23670;SDS011;12012;51.998;7.614;2024-01-30T12:25:09;16.33;;;8.25;;
23670;SDS011;12012;51.998;7.614;2024-01-30T12:27:39;17.08;;;8.95;;
23670;SDS011;12012;51.998;7.614;2024-01-30T12:30:12;16.60;;;9.07;;
23670;SDS011;12012;51.998;7.614;2024-01-30T12:32:40;14.60;;;9.45;;
23670;SDS011;12012;51.998;7.614;2024-01-30T12:35:13;16.42;;;8.55;;
23670;SDS011;12012;51.998;7.614;2024-01-30T12:37:40;15.43;;;8.43;;
23670;SDS011;12012;51.998;7.614;2024-01-30T12:40:09;21.77;;;8.98;;
23670;SDS011;12012;51.998;7.614;2024-01-30T12:42:36;13.88;;;8.35;;
23670;SDS011;12012;51.998;7.614;2024-01-30T12:45:02;17.17;;;8.15;;
23670;SDS011;12012;51.998;7.614;2024-01-30T12:47:29;14.07;;;7.75;;
23670;SDS011;12012;51.998;7.614;2024-01-30T12:49:55;17.85;;;9.65;;
23670;SDS011;12012;51.998;7.614;2024-01-30T12:52:21;16.65;;;9.27;;
23670;SDS011;12012;51.998;7.614;2024-01-30T12:54:47;15.40;;;8.60;;
23670;SDS011;12012;51.998;7.614;2024-01-30T12:57:14;16.30;;;8.50;;
23670;SDS011;12012;51.998;7.614;2024-01-30T12:59:39;17.02;;;9.32;;
23670;SDS011;12012;51.998;7.614;2024-01-30T13:02:05;15.48;;;9.05;;
23670;SDS011;12012;51.998;7.614;2024-01-30T13:04:31;15.38;;;8.70;;
23670;SDS011;12012;51.998;7.614;2024-01-30T13:06:57;18.55;;;9.80;;
23670;SDS011;12012;51.998;7.614;2024-01-30T13:09:23;17.83;;;9.45;;
23670;SDS011;12012;51.998;7.614;2024-01-30T13:11:49;23.70;;;9.45;;
23670;SDS011;12012;51.998;7.614;2024-01-30T13:14:16;12.75;;;8.52;;
23670;SDS011;12012;51.998;7.614;2024-01-30T13:16:42;16.52;;;9.35;;
23670;SDS011;12012;51.998;7.614;2024-01-30T13:19:07;16.17;;;8.75;;
23670;SDS011;12012;51.998;7.614;2024-01-30T13:21:33;17.35;;;8.82;;
23670;SDS011;12012;51.998;7.614;2024-01-30T13:23:58;14.00;;;9.00;;
23670;SDS011;12012;51.998;7.614;2024-01-30T13:26:24;15.02;;;8.70;;
23670;SDS011;12012;51.998;7.614;2024-01-30T13:28:50;23.27;;;9.27;;
23670;SDS011;12012;51.998;7.614;2024-01-30T13:31:16;16.85;;;8.55;;
23670;SDS011;12012;51.998;7.614;2024-01-30T13:33:42;13.98;;;8.32;;
23670;SDS011;12012;51.998;7.614;2024-01-30T13:36:09;16.98;;;9.32;;
23670;SDS011;12012;51.998;7.614;2024-01-30T13:38:35;16.50;;;9.23;;
23670;SDS011;12012;51.998;7.614;2024-01-30T13:41:01;13.60;;;9.13;;
23670;SDS011;12012;51.998;7.614;2024-01-30T13:43:27;15.80;;;9.13;;
23670;SDS011;12012;51.998;7.614;2024-01-30T13:45:53;16.08;;;9.50;;
23670;SDS011;12012;51.998;7.614;2024-01-30T13:48:19;15.18;;;8.95;;
23670;SDS011;12012;51.998;7.614;2024-01-30T13:50:44;13.60;;;8.73;;
23670;SDS011;12012;51.998;7.614;2024-01-30T13:53:11;19.30;;;9.75;;
23670;SDS011;12012;51.998;7.614;2024-01-30T13:55:37;17.60;;;8.63;;
23670;SDS011;12012;51.998;7.614;2024-01-30T13:58:04;15.38;;;9.48;;
23670;SDS011;12012;51.998;7.614;2024-01-30T14:00:29;15.73;;;9.38;;
23670;SDS011;12012;51.998;7.614;2024-01-30T14:02:55;14.27;;;8.23;;
23670;SDS011;12012;51.998;7.614;2024-01-30T14:05:22;14.15;;;8.10;;
23670;SDS011;12012;51.998;7.614;2024-01-30T14:07:48;14.98;;;9.15;;
23670;SDS011;12012;51.998;7.614;2024-01-30T14:10:14;16.45;;;8.88;;
23670;SDS011;12012;51.998;7.614;2024-01-30T14:12:41;16.75;;;9.20;;
23670;SDS011;12012;51.998;7.614;2024-01-30T14:15:08;15.18;;;8.68;;
23670;SDS011;12012;51.998;7.614;2024-01-30T14:17:35;15.00;;;8.60;;
23670;SDS011;12012;51.998;7.614;2024-01-30T14:20:01;16.35;;;8.50;;
23670;SDS011;12012;51.998;7.614;2024-01-30T14:22:28;13.65;;;8.02;;
23670;SDS011;12012;51.998;7.614;2024-01-30T14:24:53;12.75;;;8.23;;
23670;SDS011;12012;51.998;7.614;2024-01-30T14:27:19;17.77;;;9.65;;
23670;SDS011;12012;51.998;7.614;2024-01-30T14:29:44;15.80;;;8.88;;
23670;SDS011;12012;51.998;7.614;2024-01-30T14:32:10;14.40;;;8.63;;
23670;SDS011;12012;51.998;7.614;2024-01-30T14:34:36;16.83;;;8.45;;